createdAt,value
2022-10-17T00:02:35.846Z,14.40
2022-10-17T00:05:22.392Z,14.50
2022-10-17T00:08:09.048Z,14.60
2022-10-17T00:11:00.468Z,14.60
2022-10-17T00:13:49.817Z,14.60
2022-10-17T00:16:37.643Z,14.70
2022-10-17T00:19:23.981Z,14.60
2022-10-17T00:22:10.304Z,14.60
2022-10-17T00:24:56.735Z,14.60
2022-10-17T00:27:43.522Z,14.70
2022-10-17T00:30:32.761Z,14.70
2022-10-17T00:33:19.358Z,14.60
2022-10-17T00:36:07.100Z,14.60
2022-10-17T00:38:57.077Z,14.60
2022-10-17T00:41:43.457Z,14.50
2022-10-17T00:44:59.828Z,14.30
2022-10-17T00:47:51.668Z,14.30
2022-10-17T00:50:42.222Z,14.20
2022-10-17T00:53:28.894Z,14.20
2022-10-17T00:56:17.208Z,14.10
2022-10-17T01:02:02.232Z,14.30
2022-10-17T01:04:53.155Z,14.40
2022-10-17T01:07:42.171Z,14.30
2022-10-17T01:10:34.240Z,14.20
2022-10-17T01:13:26.461Z,14.20
2022-10-17T01:16:19.218Z,14.20
2022-10-17T01:19:27.752Z,14.10
2022-10-17T01:22:21.480Z,14.10
2022-10-17T01:25:19.835Z,14.10
2022-10-17T01:28:19.726Z,14.10
2022-10-17T01:31:13.026Z,14.20
2022-10-17T01:34:03.700Z,14.10
2022-10-17T01:36:54.275Z,14.00
2022-10-17T01:39:47.790Z,14.00
2022-10-17T01:42:37.049Z,13.90
2022-10-17T01:45:30.692Z,13.70
2022-10-17T01:48:24.649Z,13.50
2022-10-17T01:51:18.635Z,13.60
2022-10-17T01:54:11.626Z,13.40
2022-10-17T01:57:02.649Z,13.40
2022-10-17T01:59:52.801Z,13.50
2022-10-17T02:02:42.237Z,13.50
2022-10-17T02:05:34.583Z,13.30
2022-10-17T02:08:29.136Z,13.20
2022-10-17T02:11:19.336Z,13.50
2022-10-17T02:14:18.534Z,13.70
2022-10-17T02:17:14.686Z,13.70
2022-10-17T02:20:11.534Z,13.80
2022-10-17T02:23:07.817Z,13.80
2022-10-17T02:25:59.551Z,13.80
2022-10-17T02:28:51.105Z,13.80
2022-10-17T02:31:41.592Z,13.90
2022-10-17T02:34:32.589Z,13.80
2022-10-17T02:37:26.443Z,13.80
2022-10-17T02:40:16.478Z,13.80
2022-10-17T02:43:02.773Z,13.90
2022-10-17T02:45:51.485Z,13.80
2022-10-17T02:48:42.333Z,13.70
2022-10-17T02:51:36.816Z,13.80
2022-10-17T02:54:29.349Z,13.60
2022-10-17T02:57:21.881Z,13.30
2022-10-17T03:00:13.196Z,13.30
2022-10-17T03:03:00.008Z,13.30
2022-10-17T03:05:46.303Z,13.50
2022-10-17T03:08:32.644Z,13.50
2022-10-17T03:11:19.861Z,13.50
2022-10-17T03:14:07.666Z,13.50
2022-10-17T03:16:54.257Z,13.50
2022-10-17T03:19:41.737Z,13.40
2022-10-17T03:22:29.352Z,13.30
2022-10-17T03:25:18.010Z,13.20
2022-10-17T03:28:07.448Z,13.20
2022-10-17T03:30:55.581Z,13.30
2022-10-17T03:33:42.353Z,13.20
2022-10-17T03:36:29.118Z,13.30
2022-10-17T03:39:15.994Z,13.20
2022-10-17T03:42:02.913Z,13.20
2022-10-17T03:44:49.369Z,13.10
2022-10-17T03:47:38.086Z,13.20
2022-10-17T03:50:24.493Z,13.30
2022-10-17T03:53:11.985Z,13.30
2022-10-17T03:56:09.590Z,13.30
2022-10-17T03:58:57.232Z,13.40
2022-10-17T04:01:43.648Z,13.40
2022-10-17T04:04:32.780Z,13.40
2022-10-17T04:07:19.131Z,13.50
2022-10-17T04:10:09.503Z,13.40
2022-10-17T04:12:55.964Z,13.40
2022-10-17T04:15:42.670Z,13.40
2022-10-17T04:18:29.470Z,13.30
2022-10-17T04:21:18.232Z,13.40
2022-10-17T04:24:05.147Z,13.20
2022-10-17T04:27:10.366Z,13.10
2022-10-17T04:30:01.454Z,13.10
2022-10-17T04:32:50.887Z,13.10
2022-10-17T04:35:40.867Z,13.10
2022-10-17T04:38:30.282Z,13.10
2022-10-17T04:41:18.897Z,13.20
2022-10-17T04:44:06.248Z,13.10
2022-10-17T04:46:56.948Z,13.20
2022-10-17T04:49:43.282Z,13.20
2022-10-17T04:52:32.064Z,13.30
2022-10-17T04:55:20.131Z,13.20
2022-10-17T04:58:06.692Z,13.10
2022-10-17T05:00:53.681Z,13.10
2022-10-17T05:03:43.430Z,13.10
2022-10-17T05:06:30.191Z,13.10
2022-10-17T05:09:42.714Z,13.20
2022-10-17T05:12:31.380Z,13.30
2022-10-17T05:15:18.373Z,13.20
2022-10-17T05:18:06.312Z,13.20
2022-10-17T05:20:52.892Z,13.20
2022-10-17T05:23:39.615Z,13.10
2022-10-17T05:26:27.603Z,13.00
2022-10-17T05:29:15.554Z,13.10
2022-10-17T05:32:06.981Z,12.90
2022-10-17T05:34:54.444Z,12.90
2022-10-17T05:37:43.348Z,12.80
2022-10-17T05:40:30.165Z,12.70
2022-10-17T05:43:16.293Z,12.40
2022-10-17T05:46:07.232Z,12.20
2022-10-17T05:48:55.552Z,12.10
2022-10-17T05:51:42.417Z,12.00
2022-10-17T05:54:29.420Z,11.90
2022-10-17T05:57:16.020Z,11.80
2022-10-17T06:00:04.791Z,11.80
2022-10-17T06:03:02.121Z,11.90
2022-10-17T06:05:49.024Z,12.10
2022-10-17T06:08:35.890Z,12.30
2022-10-17T06:11:23.522Z,12.30
2022-10-17T06:14:10.431Z,12.30
2022-10-17T06:16:59.208Z,12.40
2022-10-17T06:19:48.240Z,12.50
2022-10-17T06:22:35.510Z,12.60
2022-10-17T06:25:24.866Z,12.70
2022-10-17T06:28:12.743Z,12.80
2022-10-17T06:30:59.453Z,12.90
2022-10-17T06:33:46.811Z,13.00
2022-10-17T06:36:35.016Z,13.20
2022-10-17T06:39:22.028Z,13.30
2022-10-17T06:42:18.312Z,13.30
2022-10-17T06:45:14.796Z,13.20
2022-10-17T06:48:05.490Z,13.20
2022-10-17T06:51:05.498Z,13.20
2022-10-17T06:54:03.888Z,13.40
2022-10-17T06:57:06.803Z,13.70
2022-10-17T07:00:16.675Z,14.20
2022-10-17T07:03:10.171Z,14.60
2022-10-17T07:05:57.497Z,14.80
2022-10-17T07:08:44.594Z,14.90
2022-10-17T07:11:35.920Z,15.30
2022-10-17T07:14:22.492Z,15.50
2022-10-17T07:17:10.399Z,15.90
2022-10-17T07:19:58.194Z,16.60
2022-10-17T07:22:45.507Z,16.70
2022-10-17T07:25:34.150Z,16.60
2022-10-17T07:28:28.112Z,16.70
2022-10-17T07:31:20.042Z,17.20
2022-10-17T07:34:06.606Z,17.50
2022-10-17T07:36:53.282Z,17.30
2022-10-17T07:39:40.371Z,17.50
2022-10-17T07:42:27.862Z,17.70
2022-10-17T07:45:16.603Z,18.00
2022-10-17T07:48:03.923Z,18.30
2022-10-17T07:50:51.913Z,18.50
2022-10-17T07:53:42.684Z,18.70
2022-10-17T07:56:31.602Z,19.00
2022-10-17T07:59:18.724Z,19.20
2022-10-17T08:02:08.032Z,19.70
2022-10-17T08:04:55.110Z,20.20
2022-10-17T08:07:41.785Z,20.40
2022-10-17T08:10:29.586Z,20.50
2022-10-17T08:13:16.121Z,20.50
2022-10-17T08:16:02.620Z,20.80
2022-10-17T08:18:50.276Z,20.70
2022-10-17T08:21:36.696Z,21.20
2022-10-17T08:24:23.360Z,20.80
2022-10-17T08:27:11.467Z,21.30
2022-10-17T08:29:58.136Z,22.00
2022-10-17T08:32:44.937Z,22.50
2022-10-17T08:35:32.807Z,22.70
2022-10-17T08:38:21.027Z,22.90
2022-10-17T08:41:15.350Z,22.90
2022-10-17T08:44:13.551Z,23.00
2022-10-17T08:47:05.098Z,22.80
2022-10-17T08:49:55.660Z,22.80
2022-10-17T08:52:48.997Z,23.00
2022-10-17T08:55:42.788Z,23.50
2022-10-17T08:58:34.559Z,23.60
2022-10-17T09:01:37.541Z,23.60
2022-10-17T09:04:45.740Z,24.00
2022-10-17T09:07:41.712Z,24.20
2022-10-17T09:10:35.963Z,24.10
2022-10-17T09:16:45.312Z,24.60
2022-10-17T09:19:35.313Z,24.90
2022-10-17T09:22:26.123Z,25.20
2022-10-17T09:25:15.229Z,25.30
2022-10-17T09:28:17.070Z,25.30
2022-10-17T09:31:05.929Z,25.20
2022-10-17T09:33:55.484Z,25.40
2022-10-17T09:36:42.498Z,25.50
2022-10-17T09:39:31.857Z,25.30
2022-10-17T09:42:22.362Z,25.30
2022-10-17T09:45:19.566Z,25.40
2022-10-17T09:48:12.569Z,25.40
2022-10-17T09:51:14.616Z,25.30
2022-10-17T09:54:13.363Z,25.10
2022-10-17T09:57:02.151Z,25.00
2022-10-17T09:59:56.986Z,25.00
2022-10-17T10:02:45.031Z,24.90
2022-10-17T10:05:31.459Z,25.00
2022-10-17T10:08:20.324Z,25.00
2022-10-17T10:11:13.342Z,24.90
2022-10-17T10:14:05.855Z,24.80
2022-10-17T10:16:54.440Z,24.90
2022-10-17T10:19:51.778Z,24.90
2022-10-17T10:22:38.226Z,25.00
2022-10-17T10:25:25.066Z,25.10
2022-10-17T10:28:12.357Z,25.10
2022-10-17T10:31:01.347Z,25.10
2022-10-17T10:33:50.253Z,25.20
2022-10-17T10:36:50.003Z,25.00
2022-10-17T10:39:44.110Z,24.90
2022-10-17T10:42:32.565Z,25.30
2022-10-17T10:45:46.422Z,25.70
2022-10-17T10:48:32.972Z,26.00
2022-10-17T10:51:22.614Z,26.30
2022-10-17T10:54:17.167Z,26.30
2022-10-17T10:57:07.235Z,26.40
2022-10-17T11:00:01.212Z,26.00
2022-10-17T11:02:55.889Z,26.20
2022-10-17T11:05:47.136Z,26.30
2022-10-17T11:08:39.497Z,26.40
2022-10-17T11:11:32.095Z,26.30
2022-10-17T11:14:24.713Z,26.40
2022-10-17T11:17:19.391Z,26.30
2022-10-17T11:20:15.401Z,26.40
2022-10-17T11:23:19.660Z,26.60
2022-10-17T11:26:11.832Z,26.60
2022-10-17T11:29:03.030Z,26.70
2022-10-17T11:31:53.421Z,26.80
2022-10-17T11:34:44.699Z,26.70
2022-10-17T11:37:35.713Z,26.80
2022-10-17T11:40:29.860Z,27.00
2022-10-17T11:43:20.793Z,27.00
2022-10-17T11:46:16.955Z,26.90
2022-10-17T11:49:14.038Z,26.70
2022-10-17T11:52:19.468Z,26.70
2022-10-17T11:55:23.064Z,26.40
2022-10-17T11:58:30.402Z,26.20
2022-10-17T12:01:26.286Z,26.10
2022-10-17T12:04:23.418Z,26.00
2022-10-17T12:07:18.263Z,26.00
2022-10-17T12:10:22.924Z,25.90
2022-10-17T12:13:46.719Z,25.90
2022-10-17T12:16:52.744Z,25.80
2022-10-17T12:19:39.368Z,25.70
2022-10-17T12:22:26.908Z,25.70
2022-10-17T12:25:20.285Z,25.50
2022-10-17T12:28:16.932Z,25.30
2022-10-17T12:31:06.661Z,25.10
2022-10-17T12:33:57.620Z,24.90
2022-10-17T12:36:44.645Z,25.00
2022-10-17T12:39:52.386Z,25.10
2022-10-17T12:42:51.848Z,24.90
2022-10-17T12:45:52.415Z,24.90
2022-10-17T12:49:03.906Z,24.80
2022-10-17T12:52:29.467Z,24.80
2022-10-17T12:55:18.197Z,24.90
2022-10-17T12:58:08.051Z,24.90
2022-10-17T13:01:23.913Z,25.00
2022-10-17T13:04:06.570Z,24.90
2022-10-17T13:06:56.654Z,24.90
2022-10-17T13:09:45.286Z,24.80
2022-10-17T13:12:40.272Z,24.90
2022-10-17T13:15:28.905Z,24.90
2022-10-17T13:18:21.953Z,24.90
2022-10-17T13:21:17.604Z,24.80
2022-10-17T13:24:21.217Z,24.80
2022-10-17T13:27:24.132Z,24.70
2022-10-17T13:30:29.396Z,24.70
2022-10-17T13:33:33.582Z,24.60
2022-10-17T13:36:21.631Z,24.50
2022-10-17T13:39:13.079Z,24.40
2022-10-17T13:42:01.879Z,24.40
2022-10-17T13:44:48.599Z,24.40
2022-10-17T13:47:38.725Z,24.50
2022-10-17T13:50:44.103Z,24.40
2022-10-17T13:53:35.090Z,24.40
2022-10-17T13:56:29.980Z,24.30
2022-10-17T13:59:24.242Z,24.20
2022-10-17T14:02:16.200Z,24.20
2022-10-17T14:05:16.676Z,24.20
2022-10-17T14:08:15.271Z,24.20
2022-10-17T14:11:15.436Z,24.20
2022-10-17T14:14:04.443Z,24.10
2022-10-17T14:16:51.240Z,23.90
2022-10-17T14:19:39.893Z,23.80
2022-10-17T14:22:28.544Z,23.60
2022-10-17T14:25:30.004Z,23.60
2022-10-17T14:28:18.454Z,23.50
2022-10-17T14:31:29.603Z,23.40
2022-10-17T14:34:25.830Z,23.40
2022-10-17T14:37:14.176Z,23.30
2022-10-17T14:40:02.377Z,23.20
2022-10-17T14:42:49.669Z,23.20
2022-10-17T14:45:40.616Z,23.10
2022-10-17T14:48:28.916Z,23.10
2022-10-17T14:51:18.367Z,23.20
2022-10-17T14:54:18.339Z,23.10
2022-10-17T14:57:15.429Z,23.10
2022-10-17T15:00:01.767Z,23.10
2022-10-17T15:02:50.633Z,23.10
2022-10-17T15:05:37.363Z,23.00
2022-10-17T15:08:24.957Z,23.00
2022-10-17T15:11:12.568Z,22.90
2022-10-17T15:13:58.800Z,22.90
2022-10-17T15:16:45.371Z,22.90
2022-10-17T15:19:33.008Z,22.80
2022-10-17T15:22:19.681Z,22.70
2022-10-17T15:25:08.169Z,22.70
2022-10-17T15:27:55.435Z,22.60
2022-10-17T15:30:41.887Z,22.60
2022-10-17T15:33:28.156Z,22.50
2022-10-17T15:36:25.783Z,22.40
2022-10-17T15:39:12.363Z,22.30
2022-10-17T15:41:59.073Z,22.20
2022-10-17T15:44:49.410Z,22.20
2022-10-17T15:47:37.439Z,22.10
2022-10-17T15:50:24.176Z,22.10
2022-10-17T15:53:14.018Z,22.00
2022-10-17T15:56:00.812Z,21.90
2022-10-17T15:58:47.573Z,21.80
2022-10-17T16:01:35.268Z,21.70
2022-10-17T16:04:23.906Z,21.50
2022-10-17T16:07:10.322Z,21.30
2022-10-17T16:09:58.617Z,21.30
2022-10-17T16:12:45.868Z,21.30
2022-10-17T16:15:32.870Z,21.20
2022-10-17T16:18:20.102Z,21.10
2022-10-17T16:21:06.590Z,21.10
2022-10-17T16:23:53.191Z,20.90
2022-10-17T16:26:41.580Z,20.80
2022-10-17T16:29:28.061Z,20.70
2022-10-17T16:32:14.469Z,20.70
2022-10-17T16:35:01.439Z,20.70
2022-10-17T16:37:47.940Z,20.50
2022-10-17T16:40:34.357Z,20.30
2022-10-17T16:43:22.104Z,20.00
2022-10-17T16:46:08.577Z,19.90
2022-10-17T16:48:55.155Z,19.80
2022-10-17T16:51:41.724Z,19.50
2022-10-17T16:54:28.177Z,19.40
2022-10-17T16:57:14.445Z,19.20
2022-10-17T17:00:02.413Z,19.20
2022-10-17T17:02:49.298Z,19.20
2022-10-17T17:05:35.530Z,19.10
2022-10-17T17:08:22.049Z,19.10
2022-10-17T17:11:09.254Z,19.10
2022-10-17T17:13:56.904Z,18.90
2022-10-17T17:16:44.854Z,18.70
2022-10-17T17:19:31.605Z,18.50
2022-10-17T17:22:18.331Z,18.40
2022-10-17T17:25:05.085Z,18.30
2022-10-17T17:27:51.673Z,18.20
2022-10-17T17:30:38.072Z,18.10
2022-10-17T17:33:26.573Z,18.10
2022-10-17T17:36:17.096Z,18.00
2022-10-17T17:39:09.120Z,18.10
2022-10-17T17:41:55.514Z,18.20
2022-10-17T17:44:41.899Z,18.10
2022-10-17T17:47:30.158Z,18.00
2022-10-17T17:50:18.532Z,17.90
2022-10-17T17:53:06.368Z,17.70
2022-10-17T17:56:02.285Z,17.60
2022-10-17T17:58:54.313Z,17.60
2022-10-17T18:01:41.302Z,17.50
2022-10-17T18:04:28.741Z,17.50
2022-10-17T18:07:16.562Z,17.60
2022-10-17T18:10:03.077Z,17.70
2022-10-17T18:12:49.925Z,17.60
2022-10-17T18:15:38.048Z,17.50
2022-10-17T18:18:24.554Z,17.40
2022-10-17T18:21:12.900Z,17.40
2022-10-17T18:24:01.142Z,17.30
2022-10-17T18:26:47.886Z,17.20
2022-10-17T18:29:34.373Z,17.10
2022-10-17T18:32:20.926Z,17.00
2022-10-17T18:35:07.879Z,17.10
2022-10-17T18:37:56.676Z,17.00
2022-10-17T18:40:46.158Z,16.90
2022-10-17T18:43:37.505Z,16.70
2022-10-17T18:46:26.057Z,16.80
2022-10-17T18:49:14.456Z,16.90
2022-10-17T18:52:00.904Z,16.90
2022-10-17T18:54:47.449Z,16.90
2022-10-17T18:57:35.180Z,16.90
2022-10-17T19:00:21.674Z,17.00
2022-10-17T19:03:08.283Z,16.80
2022-10-17T19:05:56.754Z,16.70
2022-10-17T19:08:46.744Z,16.60
2022-10-17T19:11:34.805Z,16.50
2022-10-17T19:14:22.611Z,16.50
2022-10-17T19:17:09.206Z,16.50
2022-10-17T19:19:55.537Z,16.70
2022-10-17T19:22:42.042Z,16.60
2022-10-17T19:25:30.490Z,16.60
2022-10-17T19:28:17.235Z,16.80
2022-10-17T19:31:06.946Z,16.90
2022-10-17T19:33:53.905Z,17.00
2022-10-17T19:36:40.259Z,17.00
2022-10-17T19:39:26.612Z,17.20
2022-10-17T19:42:13.091Z,17.10
2022-10-17T19:44:59.531Z,17.00
2022-10-17T19:47:47.190Z,17.10
2022-10-17T19:50:35.707Z,17.10
2022-10-17T19:53:27.497Z,16.90
2022-10-17T19:56:18.375Z,16.70
2022-10-17T19:59:05.965Z,16.80
2022-10-17T20:01:52.632Z,16.80
2022-10-17T20:04:49.659Z,16.90
2022-10-17T20:07:47.150Z,16.60
2022-10-17T20:10:33.996Z,16.40
2022-10-17T20:13:20.342Z,16.40
2022-10-17T20:16:08.637Z,16.40
2022-10-17T20:18:57.221Z,16.20
2022-10-17T20:21:45.335Z,16.20
2022-10-17T20:24:31.542Z,16.40
2022-10-17T20:27:18.187Z,16.40
2022-10-17T20:30:05.338Z,16.50
2022-10-17T20:32:55.017Z,16.20
2022-10-17T20:35:43.062Z,16.00
2022-10-17T20:38:30.945Z,16.10
2022-10-17T20:41:17.539Z,16.10
2022-10-17T20:44:04.813Z,16.20
2022-10-17T20:47:01.863Z,16.10
2022-10-17T20:49:49.066Z,16.00
2022-10-17T20:52:36.919Z,15.90
2022-10-17T20:55:24.681Z,15.80
2022-10-17T20:58:12.101Z,15.80
2022-10-17T21:00:58.493Z,15.80
2022-10-17T21:03:46.613Z,15.90
2022-10-17T21:06:33.332Z,15.90
2022-10-17T21:09:20.116Z,16.00
2022-10-17T21:12:07.797Z,15.90
2022-10-17T21:14:54.360Z,16.10
2022-10-17T21:17:40.746Z,16.10
2022-10-17T21:20:27.639Z,16.10
2022-10-17T21:23:14.148Z,16.10
2022-10-17T21:26:00.738Z,16.20
2022-10-17T21:28:49.815Z,16.20
2022-10-17T21:31:37.931Z,16.20
2022-10-17T21:34:25.497Z,16.00
2022-10-17T21:37:12.269Z,16.00
2022-10-17T21:39:58.661Z,16.00
2022-10-17T21:42:45.386Z,16.10
2022-10-17T21:45:36.405Z,16.10
2022-10-17T21:48:22.956Z,16.10
2022-10-17T21:51:12.379Z,16.10
2022-10-17T21:53:59.036Z,16.10
2022-10-17T21:56:46.182Z,16.10
2022-10-17T21:59:35.145Z,16.10
2022-10-17T22:02:22.777Z,16.10
2022-10-17T22:05:10.026Z,16.20
2022-10-17T22:07:56.898Z,16.20
2022-10-17T22:10:43.494Z,16.20
2022-10-17T22:13:29.953Z,16.20
2022-10-17T22:16:17.345Z,16.20
2022-10-17T22:19:07.087Z,16.20
2022-10-17T22:21:54.075Z,16.10
2022-10-17T22:24:40.606Z,16.00
2022-10-17T22:27:27.043Z,16.10
2022-10-17T22:30:13.740Z,16.10
2022-10-17T22:33:00.044Z,16.10
2022-10-17T22:35:48.417Z,16.10
2022-10-17T22:38:35.057Z,16.20
2022-10-17T22:41:21.997Z,16.30
2022-10-17T22:44:08.780Z,16.30
2022-10-17T22:46:55.226Z,16.40
2022-10-17T22:49:41.663Z,16.40
2022-10-17T22:52:29.652Z,16.30
2022-10-17T22:55:17.127Z,16.30
2022-10-17T22:58:03.467Z,16.30
2022-10-17T23:00:50.667Z,16.30
2022-10-17T23:03:37.002Z,16.20
2022-10-17T23:06:23.566Z,16.20
2022-10-17T23:09:13.618Z,16.30
2022-10-17T23:11:59.983Z,16.20
2022-10-17T23:14:46.310Z,16.10
2022-10-17T23:17:32.603Z,16.10
2022-10-17T23:20:18.933Z,16.10
2022-10-17T23:23:05.615Z,16.20
2022-10-17T23:25:53.805Z,16.20
2022-10-17T23:28:41.325Z,16.20
2022-10-17T23:31:27.845Z,16.20
2022-10-17T23:34:14.233Z,16.10
2022-10-17T23:37:00.899Z,15.90
2022-10-17T23:39:47.385Z,15.70
2022-10-17T23:42:35.163Z,15.60
2022-10-17T23:45:21.893Z,15.40
2022-10-17T23:48:08.562Z,15.30
2022-10-17T23:50:55.305Z,15.20
2022-10-17T23:53:42.251Z,15.00
2022-10-17T23:56:28.776Z,14.90
2022-10-17T23:59:16.581Z,15.00
